sensor_id;sensor_type;location;lat;lon;timestamp;P1;durP1;ratioP1;P2;durP2;ratioP2
7645;SDS011;3864;48.180;14.178;2023-03-01T00:01:35;21.90;;;11.63;;
7645;SDS011;3864;48.180;14.178;2023-03-01T00:04:04;20.30;;;11.43;;
7645;SDS011;3864;48.180;14.178;2023-03-01T00:09:40;21.00;;;11.32;;
7645;SDS011;3864;48.180;14.178;2023-03-01T00:12:07;22.88;;;11.80;;
7645;SDS011;3864;48.180;14.178;2023-03-01T00:14:34;25.52;;;11.65;;
7645;SDS011;3864;48.180;14.178;2023-03-01T00:17:02;23.20;;;12.52;;
7645;SDS011;3864;48.180;14.178;2023-03-01T00:19:29;26.15;;;12.77;;
7645;SDS011;3864;48.180;14.178;2023-03-01T00:21:57;25.85;;;13.23;;
7645;SDS011;3864;48.180;14.178;2023-03-01T00:24:24;25.38;;;12.68;;
7645;SDS011;3864;48.180;14.178;2023-03-01T00:26:54;27.70;;;13.73;;
7645;SDS011;3864;48.180;14.178;2023-03-01T00:29:22;26.27;;;14.77;;
7645;SDS011;3864;48.180;14.178;2023-03-01T00:31:48;23.63;;;13.18;;
7645;SDS011;3864;48.180;14.178;2023-03-01T00:34:15;26.65;;;14.18;;
7645;SDS011;3864;48.180;14.178;2023-03-01T00:36:42;23.45;;;13.40;;
7645;SDS011;3864;48.180;14.178;2023-03-01T00:39:10;23.92;;;13.50;;
7645;SDS011;3864;48.180;14.178;2023-03-01T00:41:37;24.15;;;13.25;;
7645;SDS011;3864;48.180;14.178;2023-03-01T00:44:07;23.42;;;13.55;;
7645;SDS011;3864;48.180;14.178;2023-03-01T00:46:34;23.40;;;13.00;;
7645;SDS011;3864;48.180;14.178;2023-03-01T00:49:01;23.48;;;13.60;;
7645;SDS011;3864;48.180;14.178;2023-03-01T00:51:29;22.52;;;13.90;;
7645;SDS011;3864;48.180;14.178;2023-03-01T00:53:57;24.17;;;13.32;;
7645;SDS011;3864;48.180;14.178;2023-03-01T00:56:25;26.20;;;13.02;;
7645;SDS011;3864;48.180;14.178;2023-03-01T00:58:52;24.80;;;13.82;;
7645;SDS011;3864;48.180;14.178;2023-03-01T01:01:20;23.52;;;13.65;;
7645;SDS011;3864;48.180;14.178;2023-03-01T01:03:49;22.92;;;12.88;;
7645;SDS011;3864;48.180;14.178;2023-03-01T01:06:17;24.83;;;13.82;;
7645;SDS011;3864;48.180;14.178;2023-03-01T01:08:44;26.35;;;13.57;;
7645;SDS011;3864;48.180;14.178;2023-03-01T01:11:11;24.35;;;13.05;;
7645;SDS011;3864;48.180;14.178;2023-03-01T01:13:38;21.92;;;12.05;;
7645;SDS011;3864;48.180;14.178;2023-03-01T01:16:06;22.10;;;11.55;;
7645;SDS011;3864;48.180;14.178;2023-03-01T01:18:34;22.83;;;12.30;;
7645;SDS011;3864;48.180;14.178;2023-03-01T01:21:05;24.00;;;12.05;;
7645;SDS011;3864;48.180;14.178;2023-03-01T01:23:32;26.52;;;12.15;;
7645;SDS011;3864;48.180;14.178;2023-03-01T01:26:03;23.25;;;11.02;;
7645;SDS011;3864;48.180;14.178;2023-03-01T01:28:29;24.05;;;12.05;;
7645;SDS011;3864;48.180;14.178;2023-03-01T01:30:56;24.65;;;12.75;;
7645;SDS011;3864;48.180;14.178;2023-03-01T01:33:23;23.10;;;13.30;;
7645;SDS011;3864;48.180;14.178;2023-03-01T01:35:51;25.23;;;11.52;;
7645;SDS011;3864;48.180;14.178;2023-03-01T01:38:19;26.40;;;12.52;;
7645;SDS011;3864;48.180;14.178;2023-03-01T01:40:48;23.92;;;11.60;;
7645;SDS011;3864;48.180;14.178;2023-03-01T01:43:16;25.67;;;13.45;;
7645;SDS011;3864;48.180;14.178;2023-03-01T01:45:44;23.05;;;12.77;;
7645;SDS011;3864;48.180;14.178;2023-03-01T01:48:12;22.42;;;11.35;;
7645;SDS011;3864;48.180;14.178;2023-03-01T01:50:40;25.40;;;12.82;;
7645;SDS011;3864;48.180;14.178;2023-03-01T01:53:12;24.60;;;11.98;;
7645;SDS011;3864;48.180;14.178;2023-03-01T01:55:41;20.30;;;10.77;;
7645;SDS011;3864;48.180;14.178;2023-03-01T01:58:09;28.77;;;12.15;;
7645;SDS011;3864;48.180;14.178;2023-03-01T02:00:37;29.80;;;14.00;;
7645;SDS011;3864;48.180;14.178;2023-03-01T02:03:07;27.05;;;12.27;;
7645;SDS011;3864;48.180;14.178;2023-03-01T02:05:36;23.95;;;12.68;;
7645;SDS011;3864;48.180;14.178;2023-03-01T02:08:05;27.30;;;12.88;;
7645;SDS011;3864;48.180;14.178;2023-03-01T02:10:34;26.30;;;12.13;;
7645;SDS011;3864;48.180;14.178;2023-03-01T02:13:01;24.83;;;12.23;;
7645;SDS011;3864;48.180;14.178;2023-03-01T02:15:31;24.02;;;12.00;;
7645;SDS011;3864;48.180;14.178;2023-03-01T02:17:58;26.70;;;12.65;;
7645;SDS011;3864;48.180;14.178;2023-03-01T02:20:26;23.50;;;12.05;;
7645;SDS011;3864;48.180;14.178;2023-03-01T02:22:57;26.25;;;12.48;;
7645;SDS011;3864;48.180;14.178;2023-03-01T02:27:54;26.02;;;11.80;;
7645;SDS011;3864;48.180;14.178;2023-03-01T02:30:25;25.55;;;11.32;;
7645;SDS011;3864;48.180;14.178;2023-03-01T02:32:53;24.13;;;12.40;;
7645;SDS011;3864;48.180;14.178;2023-03-01T02:35:27;24.20;;;13.55;;
7645;SDS011;3864;48.180;14.178;2023-03-01T02:37:55;25.95;;;13.43;;
7645;SDS011;3864;48.180;14.178;2023-03-01T02:40:25;27.75;;;12.55;;
7645;SDS011;3864;48.180;14.178;2023-03-01T02:42:55;24.73;;;12.07;;
7645;SDS011;3864;48.180;14.178;2023-03-01T02:45:23;24.65;;;12.18;;
7645;SDS011;3864;48.180;14.178;2023-03-01T02:47:52;25.60;;;12.77;;
7645;SDS011;3864;48.180;14.178;2023-03-01T02:50:23;26.60;;;12.73;;
7645;SDS011;3864;48.180;14.178;2023-03-01T02:52:53;27.77;;;13.80;;
7645;SDS011;3864;48.180;14.178;2023-03-01T02:55:22;26.98;;;13.30;;
7645;SDS011;3864;48.180;14.178;2023-03-01T02:57:49;27.92;;;11.98;;
7645;SDS011;3864;48.180;14.178;2023-03-01T03:00:17;28.05;;;13.38;;
7645;SDS011;3864;48.180;14.178;2023-03-01T03:02:45;27.20;;;12.73;;
7645;SDS011;3864;48.180;14.178;2023-03-01T03:05:14;28.65;;;13.65;;
7645;SDS011;3864;48.180;14.178;2023-03-01T03:07:42;26.90;;;13.75;;
7645;SDS011;3864;48.180;14.178;2023-03-01T03:10:10;27.65;;;12.98;;
7645;SDS011;3864;48.180;14.178;2023-03-01T03:12:38;26.45;;;13.10;;
7645;SDS011;3864;48.180;14.178;2023-03-01T03:15:05;28.90;;;13.32;;
7645;SDS011;3864;48.180;14.178;2023-03-01T03:17:34;29.65;;;14.90;;
7645;SDS011;3864;48.180;14.178;2023-03-01T03:20:01;25.67;;;12.98;;
7645;SDS011;3864;48.180;14.178;2023-03-01T03:22:29;25.52;;;12.00;;
7645;SDS011;3864;48.180;14.178;2023-03-01T03:24:56;28.58;;;13.00;;
7645;SDS011;3864;48.180;14.178;2023-03-01T03:27:23;29.73;;;13.32;;
7645;SDS011;3864;48.180;14.178;2023-03-01T03:29:50;29.63;;;13.63;;
7645;SDS011;3864;48.180;14.178;2023-03-01T03:32:16;28.77;;;13.20;;
7645;SDS011;3864;48.180;14.178;2023-03-01T03:34:43;27.85;;;13.57;;
7645;SDS011;3864;48.180;14.178;2023-03-01T03:37:10;26.35;;;12.75;;
7645;SDS011;3864;48.180;14.178;2023-03-01T03:39:59;27.98;;;13.80;;
7645;SDS011;3864;48.180;14.178;2023-03-01T03:42:26;32.03;;;14.40;;
7645;SDS011;3864;48.180;14.178;2023-03-01T03:44:53;36.25;;;15.20;;
7645;SDS011;3864;48.180;14.178;2023-03-01T03:47:19;29.60;;;13.65;;
7645;SDS011;3864;48.180;14.178;2023-03-01T03:49:46;29.30;;;13.93;;
7645;SDS011;3864;48.180;14.178;2023-03-01T03:52:13;29.23;;;14.38;;
7645;SDS011;3864;48.180;14.178;2023-03-01T03:54:40;34.35;;;15.10;;
7645;SDS011;3864;48.180;14.178;2023-03-01T03:57:09;30.58;;;14.20;;
7645;SDS011;3864;48.180;14.178;2023-03-01T03:59:36;31.40;;;15.45;;
7645;SDS011;3864;48.180;14.178;2023-03-01T04:02:02;28.83;;;13.45;;
7645;SDS011;3864;48.180;14.178;2023-03-01T04:04:30;30.90;;;15.10;;
7645;SDS011;3864;48.180;14.178;2023-03-01T04:06:57;28.95;;;14.15;;
7645;SDS011;3864;48.180;14.178;2023-03-01T04:09:24;28.15;;;14.02;;
7645;SDS011;3864;48.180;14.178;2023-03-01T04:11:51;27.00;;;13.15;;
7645;SDS011;3864;48.180;14.178;2023-03-01T04:14:19;30.55;;;15.10;;
7645;SDS011;3864;48.180;14.178;2023-03-01T04:16:46;32.85;;;15.40;;
7645;SDS011;3864;48.180;14.178;2023-03-01T04:19:13;30.83;;;14.85;;
7645;SDS011;3864;48.180;14.178;2023-03-01T04:21:40;30.75;;;15.13;;
7645;SDS011;3864;48.180;14.178;2023-03-01T04:24:07;35.67;;;15.98;;
7645;SDS011;3864;48.180;14.178;2023-03-01T04:26:34;33.03;;;15.15;;
7645;SDS011;3864;48.180;14.178;2023-03-01T04:29:01;35.10;;;16.13;;
7645;SDS011;3864;48.180;14.178;2023-03-01T04:31:29;35.72;;;16.33;;
7645;SDS011;3864;48.180;14.178;2023-03-01T04:33:56;33.50;;;15.73;;
7645;SDS011;3864;48.180;14.178;2023-03-01T04:36:23;32.67;;;15.48;;
7645;SDS011;3864;48.180;14.178;2023-03-01T04:38:51;29.10;;;14.77;;
7645;SDS011;3864;48.180;14.178;2023-03-01T04:41:18;33.50;;;15.55;;
7645;SDS011;3864;48.180;14.178;2023-03-01T04:43:45;33.10;;;14.90;;
7645;SDS011;3864;48.180;14.178;2023-03-01T04:46:14;30.05;;;14.80;;
7645;SDS011;3864;48.180;14.178;2023-03-01T04:48:43;35.63;;;15.30;;
7645;SDS011;3864;48.180;14.178;2023-03-01T04:51:11;36.33;;;16.17;;
7645;SDS011;3864;48.180;14.178;2023-03-01T04:53:40;36.17;;;15.27;;
7645;SDS011;3864;48.180;14.178;2023-03-01T04:56:07;36.60;;;15.57;;
7645;SDS011;3864;48.180;14.178;2023-03-01T04:58:34;34.42;;;16.40;;
7645;SDS011;3864;48.180;14.178;2023-03-01T05:01:01;36.72;;;15.90;;
7645;SDS011;3864;48.180;14.178;2023-03-01T05:03:28;31.10;;;15.05;;
7645;SDS011;3864;48.180;14.178;2023-03-01T05:05:58;32.13;;;16.05;;
7645;SDS011;3864;48.180;14.178;2023-03-01T05:08:25;32.17;;;15.65;;
7645;SDS011;3864;48.180;14.178;2023-03-01T05:10:52;35.67;;;15.75;;
7645;SDS011;3864;48.180;14.178;2023-03-01T05:13:19;35.33;;;15.90;;
7645;SDS011;3864;48.180;14.178;2023-03-01T05:15:48;36.08;;;16.10;;
7645;SDS011;3864;48.180;14.178;2023-03-01T05:18:15;31.77;;;15.63;;
7645;SDS011;3864;48.180;14.178;2023-03-01T05:20:42;33.88;;;15.80;;
7645;SDS011;3864;48.180;14.178;2023-03-01T05:23:11;35.67;;;16.02;;
7645;SDS011;3864;48.180;14.178;2023-03-01T05:25:38;36.85;;;16.65;;
7645;SDS011;3864;48.180;14.178;2023-03-01T05:28:07;36.58;;;16.65;;
7645;SDS011;3864;48.180;14.178;2023-03-01T05:30:36;39.40;;;16.70;;
7645;SDS011;3864;48.180;14.178;2023-03-01T05:33:04;38.88;;;16.83;;
7645;SDS011;3864;48.180;14.178;2023-03-01T05:35:35;37.17;;;16.58;;
7645;SDS011;3864;48.180;14.178;2023-03-01T05:38:02;37.53;;;16.92;;
7645;SDS011;3864;48.180;14.178;2023-03-01T05:40:32;37.20;;;16.38;;
7645;SDS011;3864;48.180;14.178;2023-03-01T05:42:59;36.40;;;17.25;;
7645;SDS011;3864;48.180;14.178;2023-03-01T05:45:27;33.75;;;17.00;;
7645;SDS011;3864;48.180;14.178;2023-03-01T05:47:54;39.20;;;16.98;;
7645;SDS011;3864;48.180;14.178;2023-03-01T05:50:21;35.40;;;17.83;;
7645;SDS011;3864;48.180;14.178;2023-03-01T05:52:49;35.25;;;16.42;;
7645;SDS011;3864;48.180;14.178;2023-03-01T05:55:17;40.50;;;18.20;;
7645;SDS011;3864;48.180;14.178;2023-03-01T05:57:46;38.75;;;16.20;;
7645;SDS011;3864;48.180;14.178;2023-03-01T06:00:13;37.38;;;16.27;;
7645;SDS011;3864;48.180;14.178;2023-03-01T06:02:41;36.65;;;17.88;;
7645;SDS011;3864;48.180;14.178;2023-03-01T06:05:09;38.60;;;16.23;;
7645;SDS011;3864;48.180;14.178;2023-03-01T06:07:36;36.92;;;16.92;;
7645;SDS011;3864;48.180;14.178;2023-03-01T06:10:03;35.35;;;16.25;;
7645;SDS011;3864;48.180;14.178;2023-03-01T06:12:31;34.17;;;16.80;;
7645;SDS011;3864;48.180;14.178;2023-03-01T06:14:59;36.40;;;17.63;;
7645;SDS011;3864;48.180;14.178;2023-03-01T06:17:26;40.30;;;17.40;;
7645;SDS011;3864;48.180;14.178;2023-03-01T06:19:55;41.83;;;18.63;;
7645;SDS011;3864;48.180;14.178;2023-03-01T06:22:22;37.55;;;17.50;;
7645;SDS011;3864;48.180;14.178;2023-03-01T06:24:49;39.88;;;18.35;;
7645;SDS011;3864;48.180;14.178;2023-03-01T06:27:15;44.17;;;19.67;;
7645;SDS011;3864;48.180;14.178;2023-03-01T06:29:42;48.17;;;20.30;;
7645;SDS011;3864;48.180;14.178;2023-03-01T06:32:11;41.03;;;18.95;;
7645;SDS011;3864;48.180;14.178;2023-03-01T06:34:38;42.80;;;19.33;;
7645;SDS011;3864;48.180;14.178;2023-03-01T06:37:04;48.45;;;20.90;;
7645;SDS011;3864;48.180;14.178;2023-03-01T06:39:32;40.78;;;18.20;;
7645;SDS011;3864;48.180;14.178;2023-03-01T06:41:59;44.47;;;19.88;;
7645;SDS011;3864;48.180;14.178;2023-03-01T06:44:26;42.88;;;18.17;;
7645;SDS011;3864;48.180;14.178;2023-03-01T06:46:53;49.00;;;19.80;;
7645;SDS011;3864;48.180;14.178;2023-03-01T06:49:21;42.15;;;18.63;;
7645;SDS011;3864;48.180;14.178;2023-03-01T06:51:48;48.47;;;21.67;;
7645;SDS011;3864;48.180;14.178;2023-03-01T06:54:15;41.35;;;19.95;;
7645;SDS011;3864;48.180;14.178;2023-03-01T06:56:42;46.50;;;22.77;;
7645;SDS011;3864;48.180;14.178;2023-03-01T06:59:09;41.80;;;20.13;;
7645;SDS011;3864;48.180;14.178;2023-03-01T07:01:36;42.97;;;20.30;;
7645;SDS011;3864;48.180;14.178;2023-03-01T07:06:32;41.90;;;18.48;;
7645;SDS011;3864;48.180;14.178;2023-03-01T07:08:59;45.40;;;20.55;;
7645;SDS011;3864;48.180;14.178;2023-03-01T07:11:26;42.30;;;19.58;;
7645;SDS011;3864;48.180;14.178;2023-03-01T07:13:52;45.08;;;19.48;;
7645;SDS011;3864;48.180;14.178;2023-03-01T07:18:46;35.75;;;17.70;;
7645;SDS011;3864;48.180;14.178;2023-03-01T07:21:14;37.30;;;18.35;;
7645;SDS011;3864;48.180;14.178;2023-03-01T07:23:42;46.83;;;18.52;;
7645;SDS011;3864;48.180;14.178;2023-03-01T07:26:09;44.53;;;19.75;;
7645;SDS011;3864;48.180;14.178;2023-03-01T07:28:36;39.28;;;18.13;;
7645;SDS011;3864;48.180;14.178;2023-03-01T07:31:04;39.53;;;18.90;;
7645;SDS011;3864;48.180;14.178;2023-03-01T07:33:31;44.58;;;19.48;;
7645;SDS011;3864;48.180;14.178;2023-03-01T07:35:59;42.40;;;19.38;;
7645;SDS011;3864;48.180;14.178;2023-03-01T07:38:26;41.22;;;19.60;;
7645;SDS011;3864;48.180;14.178;2023-03-01T07:43:22;35.10;;;18.08;;
7645;SDS011;3864;48.180;14.178;2023-03-01T07:45:48;42.20;;;18.55;;
7645;SDS011;3864;48.180;14.178;2023-03-01T07:48:16;42.47;;;19.38;;
7645;SDS011;3864;48.180;14.178;2023-03-01T07:53:09;36.53;;;17.95;;
7645;SDS011;3864;48.180;14.178;2023-03-01T07:55:36;36.85;;;18.70;;
7645;SDS011;3864;48.180;14.178;2023-03-01T07:58:03;41.47;;;19.08;;
7645;SDS011;3864;48.180;14.178;2023-03-01T08:00:32;39.83;;;17.63;;
7645;SDS011;3864;48.180;14.178;2023-03-01T08:02:59;40.83;;;19.58;;
7645;SDS011;3864;48.180;14.178;2023-03-01T08:07:52;36.97;;;18.35;;
7645;SDS011;3864;48.180;14.178;2023-03-01T08:10:19;40.08;;;18.60;;
7645;SDS011;3864;48.180;14.178;2023-03-01T08:12:46;41.83;;;19.50;;
7645;SDS011;3864;48.180;14.178;2023-03-01T08:15:13;43.47;;;19.73;;
7645;SDS011;3864;48.180;14.178;2023-03-01T08:17:42;40.08;;;19.77;;
7645;SDS011;3864;48.180;14.178;2023-03-01T08:20:09;39.17;;;19.75;;
7645;SDS011;3864;48.180;14.178;2023-03-01T08:22:37;38.47;;;18.05;;
7645;SDS011;3864;48.180;14.178;2023-03-01T08:25:04;42.80;;;19.42;;
7645;SDS011;3864;48.180;14.178;2023-03-01T08:27:31;37.22;;;19.50;;
7645;SDS011;3864;48.180;14.178;2023-03-01T08:29:57;40.30;;;18.98;;
7645;SDS011;3864;48.180;14.178;2023-03-01T08:32:24;37.47;;;18.75;;
7645;SDS011;3864;48.180;14.178;2023-03-01T08:34:53;38.13;;;17.92;;
7645;SDS011;3864;48.180;14.178;2023-03-01T08:37:20;40.28;;;18.05;;
7645;SDS011;3864;48.180;14.178;2023-03-01T08:39:46;33.78;;;17.30;;
7645;SDS011;3864;48.180;14.178;2023-03-01T08:42:13;37.10;;;18.85;;
7645;SDS011;3864;48.180;14.178;2023-03-01T08:44:40;33.63;;;17.67;;
7645;SDS011;3864;48.180;14.178;2023-03-01T08:47:07;36.50;;;19.42;;
7645;SDS011;3864;48.180;14.178;2023-03-01T08:49:34;34.88;;;18.83;;
7645;SDS011;3864;48.180;14.178;2023-03-01T08:52:02;38.05;;;17.55;;
7645;SDS011;3864;48.180;14.178;2023-03-01T08:54:29;37.13;;;19.13;;
7645;SDS011;3864;48.180;14.178;2023-03-01T08:56:56;33.05;;;17.02;;
7645;SDS011;3864;48.180;14.178;2023-03-01T08:59:24;33.67;;;16.48;;
7645;SDS011;3864;48.180;14.178;2023-03-01T09:01:52;32.33;;;16.92;;
7645;SDS011;3864;48.180;14.178;2023-03-01T09:04:19;35.35;;;17.20;;
7645;SDS011;3864;48.180;14.178;2023-03-01T09:06:46;34.45;;;17.48;;
7645;SDS011;3864;48.180;14.178;2023-03-01T09:09:15;35.95;;;16.90;;
7645;SDS011;3864;48.180;14.178;2023-03-01T09:11:42;32.05;;;16.52;;
7645;SDS011;3864;48.180;14.178;2023-03-01T09:14:11;29.38;;;15.07;;
7645;SDS011;3864;48.180;14.178;2023-03-01T09:16:37;28.95;;;15.32;;
7645;SDS011;3864;48.180;14.178;2023-03-01T09:21:31;28.00;;;15.40;;
7645;SDS011;3864;48.180;14.178;2023-03-01T09:23:58;29.48;;;14.40;;
7645;SDS011;3864;48.180;14.178;2023-03-01T09:26:26;26.98;;;14.90;;
7645;SDS011;3864;48.180;14.178;2023-03-01T09:28:54;30.20;;;14.95;;
7645;SDS011;3864;48.180;14.178;2023-03-01T09:31:22;25.50;;;14.43;;
7645;SDS011;3864;48.180;14.178;2023-03-01T09:33:49;26.58;;;14.73;;
7645;SDS011;3864;48.180;14.178;2023-03-01T09:36:17;24.58;;;14.52;;
7645;SDS011;3864;48.180;14.178;2023-03-01T09:38:45;24.48;;;13.80;;
7645;SDS011;3864;48.180;14.178;2023-03-01T09:43:59;27.40;;;13.13;;
7645;SDS011;3864;48.180;14.178;2023-03-01T09:46:28;27.88;;;14.02;;
7645;SDS011;3864;48.180;14.178;2023-03-01T09:48:59;24.73;;;13.45;;
7645;SDS011;3864;48.180;14.178;2023-03-01T09:51:29;24.48;;;12.75;;
7645;SDS011;3864;48.180;14.178;2023-03-01T09:53:57;23.45;;;12.80;;
7645;SDS011;3864;48.180;14.178;2023-03-01T09:56:27;21.45;;;12.90;;
7645;SDS011;3864;48.180;14.178;2023-03-01T09:58:57;21.85;;;11.68;;
7645;SDS011;3864;48.180;14.178;2023-03-01T10:01:32;24.35;;;13.05;;
7645;SDS011;3864;48.180;14.178;2023-03-01T10:04:20;24.02;;;12.93;;
7645;SDS011;3864;48.180;14.178;2023-03-01T10:06:51;23.40;;;12.68;;
7645;SDS011;3864;48.180;14.178;2023-03-01T10:09:21;22.80;;;12.93;;
7645;SDS011;3864;48.180;14.178;2023-03-01T10:14:15;22.63;;;11.90;;
7645;SDS011;3864;48.180;14.178;2023-03-01T10:16:51;23.63;;;12.20;;
7645;SDS011;3864;48.180;14.178;2023-03-01T10:19:20;17.75;;;10.93;;
7645;SDS011;3864;48.180;14.178;2023-03-01T10:21:49;22.95;;;12.68;;
7645;SDS011;3864;48.180;14.178;2023-03-01T10:26:47;20.75;;;11.40;;
7645;SDS011;3864;48.180;14.178;2023-03-01T10:29:15;20.33;;;11.25;;
7645;SDS011;3864;48.180;14.178;2023-03-01T10:31:43;23.05;;;12.43;;
7645;SDS011;3864;48.180;14.178;2023-03-01T10:34:13;19.45;;;11.48;;
7645;SDS011;3864;48.180;14.178;2023-03-01T10:36:41;19.38;;;11.35;;
7645;SDS011;3864;48.180;14.178;2023-03-01T10:39:12;19.30;;;10.25;;
7645;SDS011;3864;48.180;14.178;2023-03-01T10:41:44;20.23;;;10.50;;
7645;SDS011;3864;48.180;14.178;2023-03-01T10:44:34;16.95;;;10.85;;
7645;SDS011;3864;48.180;14.178;2023-03-01T10:47:01;20.50;;;11.30;;
7645;SDS011;3864;48.180;14.178;2023-03-01T10:49:29;18.45;;;10.93;;
7645;SDS011;3864;48.180;14.178;2023-03-01T10:52:11;18.20;;;10.75;;
7645;SDS011;3864;48.180;14.178;2023-03-01T10:54:43;20.83;;;11.93;;
7645;SDS011;3864;48.180;14.178;2023-03-01T10:57:24;20.08;;;10.85;;
7645;SDS011;3864;48.180;14.178;2023-03-01T11:00:00;19.27;;;10.30;;
7645;SDS011;3864;48.180;14.178;2023-03-01T11:02:29;20.23;;;11.60;;
7645;SDS011;3864;48.180;14.178;2023-03-01T11:05:01;16.52;;;10.02;;
7645;SDS011;3864;48.180;14.178;2023-03-01T11:07:28;19.35;;;11.10;;
7645;SDS011;3864;48.180;14.178;2023-03-01T11:09:55;19.70;;;11.15;;
7645;SDS011;3864;48.180;14.178;2023-03-01T11:12:22;20.75;;;11.20;;
7645;SDS011;3864;48.180;14.178;2023-03-01T11:17:17;18.65;;;10.95;;
7645;SDS011;3864;48.180;14.178;2023-03-01T11:19:44;19.20;;;11.02;;
7645;SDS011;3864;48.180;14.178;2023-03-01T11:22:27;17.90;;;10.25;;
7645;SDS011;3864;48.180;14.178;2023-03-01T11:24:54;17.02;;;10.38;;
7645;SDS011;3864;48.180;14.178;2023-03-01T11:27:24;19.55;;;10.38;;
7645;SDS011;3864;48.180;14.178;2023-03-01T11:29:52;17.65;;;10.30;;
7645;SDS011;3864;48.180;14.178;2023-03-01T11:32:20;18.88;;;11.10;;
7645;SDS011;3864;48.180;14.178;2023-03-01T11:34:50;19.35;;;11.50;;
7645;SDS011;3864;48.180;14.178;2023-03-01T11:37:22;18.42;;;10.48;;
7645;SDS011;3864;48.180;14.178;2023-03-01T11:39:55;20.35;;;10.50;;
7645;SDS011;3864;48.180;14.178;2023-03-01T11:42:26;20.20;;;10.70;;
7645;SDS011;3864;48.180;14.178;2023-03-01T11:44:55;22.45;;;11.48;;
7645;SDS011;3864;48.180;14.178;2023-03-01T11:47:38;18.50;;;9.73;;
7645;SDS011;3864;48.180;14.178;2023-03-01T11:50:13;21.23;;;10.63;;
7645;SDS011;3864;48.180;14.178;2023-03-01T11:52:43;19.73;;;10.27;;
7645;SDS011;3864;48.180;14.178;2023-03-01T11:55:23;20.25;;;10.57;;
7645;SDS011;3864;48.180;14.178;2023-03-01T11:57:57;19.40;;;11.23;;
7645;SDS011;3864;48.180;14.178;2023-03-01T12:00:31;15.50;;;10.02;;
7645;SDS011;3864;48.180;14.178;2023-03-01T12:03:09;18.42;;;10.75;;
7645;SDS011;3864;48.180;14.178;2023-03-01T12:05:46;17.52;;;10.15;;
7645;SDS011;3864;48.180;14.178;2023-03-01T12:08:14;18.25;;;9.73;;
7645;SDS011;3864;48.180;14.178;2023-03-01T12:10:47;17.90;;;10.88;;
7645;SDS011;3864;48.180;14.178;2023-03-01T12:13:38;18.25;;;10.20;;
7645;SDS011;3864;48.180;14.178;2023-03-01T12:16:09;18.27;;;10.02;;
7645;SDS011;3864;48.180;14.178;2023-03-01T12:18:41;16.83;;;10.20;;
7645;SDS011;3864;48.180;14.178;2023-03-01T12:21:15;17.98;;;10.15;;
7645;SDS011;3864;48.180;14.178;2023-03-01T12:23:58;16.15;;;10.70;;
7645;SDS011;3864;48.180;14.178;2023-03-01T12:26:32;19.45;;;11.15;;
7645;SDS011;3864;48.180;14.178;2023-03-01T12:29:09;17.92;;;10.15;;
7645;SDS011;3864;48.180;14.178;2023-03-01T12:31:41;21.48;;;11.10;;
7645;SDS011;3864;48.180;14.178;2023-03-01T12:34:15;16.52;;;9.43;;
7645;SDS011;3864;48.180;14.178;2023-03-01T12:36:51;18.52;;;10.50;;
7645;SDS011;3864;48.180;14.178;2023-03-01T12:39:23;18.40;;;11.10;;
7645;SDS011;3864;48.180;14.178;2023-03-01T12:41:59;15.88;;;10.15;;
7645;SDS011;3864;48.180;14.178;2023-03-01T12:44:35;18.67;;;11.25;;
7645;SDS011;3864;48.180;14.178;2023-03-01T12:47:13;17.65;;;10.48;;
7645;SDS011;3864;48.180;14.178;2023-03-01T12:49:43;16.02;;;10.07;;
7645;SDS011;3864;48.180;14.178;2023-03-01T12:52:13;20.45;;;11.27;;
7645;SDS011;3864;48.180;14.178;2023-03-01T12:54:41;16.95;;;9.73;;
7645;SDS011;3864;48.180;14.178;2023-03-01T12:57:11;17.13;;;9.57;;
7645;SDS011;3864;48.180;14.178;2023-03-01T12:59:42;17.90;;;9.80;;
7645;SDS011;3864;48.180;14.178;2023-03-01T13:02:12;18.60;;;10.13;;
7645;SDS011;3864;48.180;14.178;2023-03-01T13:04:46;15.10;;;9.32;;
7645;SDS011;3864;48.180;14.178;2023-03-01T13:07:23;19.25;;;10.77;;
7645;SDS011;3864;48.180;14.178;2023-03-01T13:09:55;19.67;;;10.20;;
7645;SDS011;3864;48.180;14.178;2023-03-01T13:12:43;18.92;;;10.77;;
7645;SDS011;3864;48.180;14.178;2023-03-01T13:15:26;17.92;;;10.15;;
7645;SDS011;3864;48.180;14.178;2023-03-01T13:17:53;18.38;;;10.20;;
7645;SDS011;3864;48.180;14.178;2023-03-01T13:20:22;18.73;;;9.77;;
7645;SDS011;3864;48.180;14.178;2023-03-01T13:22:59;17.83;;;10.68;;
7645;SDS011;3864;48.180;14.178;2023-03-01T13:25:26;18.38;;;9.77;;
7645;SDS011;3864;48.180;14.178;2023-03-01T13:36:03;21.60;;;11.05;;
7645;SDS011;3864;48.180;14.178;2023-03-01T13:38:37;18.23;;;10.38;;
7645;SDS011;3864;48.180;14.178;2023-03-01T13:41:06;18.15;;;10.65;;
7645;SDS011;3864;48.180;14.178;2023-03-01T13:43:34;18.27;;;10.05;;
7645;SDS011;3864;48.180;14.178;2023-03-01T13:46:02;19.98;;;11.13;;
7645;SDS011;3864;48.180;14.178;2023-03-01T13:48:34;18.05;;;11.77;;
7645;SDS011;3864;48.180;14.178;2023-03-01T13:51:02;18.58;;;11.00;;
7645;SDS011;3864;48.180;14.178;2023-03-01T13:53:31;20.15;;;12.48;;
7645;SDS011;3864;48.180;14.178;2023-03-01T13:56:00;18.60;;;10.88;;
7645;SDS011;3864;48.180;14.178;2023-03-01T13:58:29;20.00;;;12.02;;
7645;SDS011;3864;48.180;14.178;2023-03-01T14:00:57;22.23;;;12.27;;
7645;SDS011;3864;48.180;14.178;2023-03-01T14:03:24;17.98;;;10.88;;
7645;SDS011;3864;48.180;14.178;2023-03-01T14:08:19;16.45;;;9.77;;
7645;SDS011;3864;48.180;14.178;2023-03-01T14:10:51;20.27;;;10.65;;
7645;SDS011;3864;48.180;14.178;2023-03-01T14:13:25;19.30;;;10.07;;
7645;SDS011;3864;48.180;14.178;2023-03-01T14:15:59;17.83;;;9.43;;
7645;SDS011;3864;48.180;14.178;2023-03-01T14:18:32;16.92;;;10.13;;
7645;SDS011;3864;48.180;14.178;2023-03-01T14:21:06;16.60;;;10.18;;
7645;SDS011;3864;48.180;14.178;2023-03-01T14:23:33;18.90;;;10.38;;
7645;SDS011;3864;48.180;14.178;2023-03-01T14:26:03;18.55;;;10.63;;
7645;SDS011;3864;48.180;14.178;2023-03-01T14:28:31;19.20;;;10.95;;
7645;SDS011;3864;48.180;14.178;2023-03-01T14:30:59;17.02;;;10.48;;
7645;SDS011;3864;48.180;14.178;2023-03-01T14:33:28;17.90;;;9.77;;
7645;SDS011;3864;48.180;14.178;2023-03-01T14:35:56;20.05;;;11.35;;
7645;SDS011;3864;48.180;14.178;2023-03-01T14:38:29;14.45;;;9.82;;
7645;SDS011;3864;48.180;14.178;2023-03-01T14:40:58;15.90;;;10.63;;
7645;SDS011;3864;48.180;14.178;2023-03-01T14:43:28;17.13;;;10.00;;
7645;SDS011;3864;48.180;14.178;2023-03-01T14:45:55;16.70;;;10.05;;
7645;SDS011;3864;48.180;14.178;2023-03-01T14:48:22;15.55;;;10.18;;
7645;SDS011;3864;48.180;14.178;2023-03-01T14:50:49;17.33;;;9.98;;
7645;SDS011;3864;48.180;14.178;2023-03-01T14:53:17;17.20;;;10.07;;
7645;SDS011;3864;48.180;14.178;2023-03-01T14:55:46;18.05;;;9.38;;
7645;SDS011;3864;48.180;14.178;2023-03-01T14:58:14;19.27;;;11.00;;
7645;SDS011;3864;48.180;14.178;2023-03-01T15:00:45;17.27;;;9.93;;
7645;SDS011;3864;48.180;14.178;2023-03-01T15:03:14;16.10;;;9.38;;
7645;SDS011;3864;48.180;14.178;2023-03-01T15:05:45;17.05;;;9.70;;
7645;SDS011;3864;48.180;14.178;2023-03-01T15:10:38;15.18;;;9.27;;
7645;SDS011;3864;48.180;14.178;2023-03-01T15:13:11;18.58;;;10.18;;
7645;SDS011;3864;48.180;14.178;2023-03-01T15:15:38;19.10;;;10.70;;
7645;SDS011;3864;48.180;14.178;2023-03-01T15:18:13;16.45;;;9.77;;
7645;SDS011;3864;48.180;14.178;2023-03-01T15:20:41;17.63;;;9.10;;
7645;SDS011;3864;48.180;14.178;2023-03-01T15:25:37;20.60;;;10.98;;
7645;SDS011;3864;48.180;14.178;2023-03-01T15:30:37;17.42;;;9.75;;
7645;SDS011;3864;48.180;14.178;2023-03-01T15:33:18;17.05;;;10.18;;
7645;SDS011;3864;48.180;14.178;2023-03-01T15:35:46;16.10;;;9.13;;